sensor_id;sensor_type;location;lat;lon;timestamp;temperature;humidity
9219;DHT22;4644;48.858;9.184;2023-06-26T00:02:18;20.70;79.80
9219;DHT22;4644;48.858;9.184;2023-06-26T00:04:45;20.70;78.70
9219;DHT22;4644;48.858;9.184;2023-06-26T00:07:12;20.70;77.70
9219;DHT22;4644;48.858;9.184;2023-06-26T00:09:39;20.70;79.40
9219;DHT22;4644;48.858;9.184;2023-06-26T00:12:06;20.70;78.20
9219;DHT22;4644;48.858;9.184;2023-06-26T00:14:34;20.60;77.60
9219;DHT22;4644;48.858;9.184;2023-06-26T00:17:02;20.60;81.80
9219;DHT22;4644;48.858;9.184;2023-06-26T00:19:29;20.60;82.60
9219;DHT22;4644;48.858;9.184;2023-06-26T00:21:56;20.50;80.60
9219;DHT22;4644;48.858;9.184;2023-06-26T00:24:23;20.50;80.20
9219;DHT22;4644;48.858;9.184;2023-06-26T00:26:50;20.50;81.80
9219;DHT22;4644;48.858;9.184;2023-06-26T00:29:16;20.40;83.00
9219;DHT22;4644;48.858;9.184;2023-06-26T00:31:43;20.30;81.10
9219;DHT22;4644;48.858;9.184;2023-06-26T00:34:12;20.30;82.40
9219;DHT22;4644;48.858;9.184;2023-06-26T00:36:40;20.40;81.60
9219;DHT22;4644;48.858;9.184;2023-06-26T00:39:08;20.40;79.80
9219;DHT22;4644;48.858;9.184;2023-06-26T00:41:36;20.40;81.20
9219;DHT22;4644;48.858;9.184;2023-06-26T00:44:03;20.30;82.40
9219;DHT22;4644;48.858;9.184;2023-06-26T00:46:31;20.30;81.60
9219;DHT22;4644;48.858;9.184;2023-06-26T00:48:59;20.40;81.10
9219;DHT22;4644;48.858;9.184;2023-06-26T00:51:29;20.30;80.80
9219;DHT22;4644;48.858;9.184;2023-06-26T00:53:56;20.40;80.70
9219;DHT22;4644;48.858;9.184;2023-06-26T00:56:23;20.30;81.70
9219;DHT22;4644;48.858;9.184;2023-06-26T00:58:50;20.20;81.50
9219;DHT22;4644;48.858;9.184;2023-06-26T01:01:17;20.20;81.80
9219;DHT22;4644;48.858;9.184;2023-06-26T01:03:49;20.30;81.20
9219;DHT22;4644;48.858;9.184;2023-06-26T01:06:18;20.30;81.30
9219;DHT22;4644;48.858;9.184;2023-06-26T01:08:48;20.30;82.30
9219;DHT22;4644;48.858;9.184;2023-06-26T01:11:15;20.20;81.70
9219;DHT22;4644;48.858;9.184;2023-06-26T01:13:43;20.20;81.40
9219;DHT22;4644;48.858;9.184;2023-06-26T01:16:10;20.20;81.80
9219;DHT22;4644;48.858;9.184;2023-06-26T01:18:39;20.20;82.30
9219;DHT22;4644;48.858;9.184;2023-06-26T01:21:09;20.20;82.30
9219;DHT22;4644;48.858;9.184;2023-06-26T01:23:39;20.20;82.50
9219;DHT22;4644;48.858;9.184;2023-06-26T01:26:19;20.20;82.50
9219;DHT22;4644;48.858;9.184;2023-06-26T01:28:47;20.20;82.20
9219;DHT22;4644;48.858;9.184;2023-06-26T01:31:15;20.20;82.50
9219;DHT22;4644;48.858;9.184;2023-06-26T01:33:43;20.10;82.40
9219;DHT22;4644;48.858;9.184;2023-06-26T01:36:10;20.10;83.10
9219;DHT22;4644;48.858;9.184;2023-06-26T01:38:37;20.10;83.60
9219;DHT22;4644;48.858;9.184;2023-06-26T01:41:05;20.10;82.90
9219;DHT22;4644;48.858;9.184;2023-06-26T01:43:40;20.10;82.80
9219;DHT22;4644;48.858;9.184;2023-06-26T01:46:17;20.10;82.50
9219;DHT22;4644;48.858;9.184;2023-06-26T01:48:51;20.20;82.70
9219;DHT22;4644;48.858;9.184;2023-06-26T01:51:27;20.10;82.70
9219;DHT22;4644;48.858;9.184;2023-06-26T01:53:58;20.10;83.10
9219;DHT22;4644;48.858;9.184;2023-06-26T01:56:26;20.00;83.70
9219;DHT22;4644;48.858;9.184;2023-06-26T01:58:56;20.00;83.10
9219;DHT22;4644;48.858;9.184;2023-06-26T02:01:24;20.00;83.30
9219;DHT22;4644;48.858;9.184;2023-06-26T02:03:51;20.00;83.50
9219;DHT22;4644;48.858;9.184;2023-06-26T02:06:18;19.90;83.70
9219;DHT22;4644;48.858;9.184;2023-06-26T02:08:45;19.80;83.70
9219;DHT22;4644;48.858;9.184;2023-06-26T02:11:11;19.90;83.80
9219;DHT22;4644;48.858;9.184;2023-06-26T02:13:41;19.90;83.90
9219;DHT22;4644;48.858;9.184;2023-06-26T02:16:09;19.90;84.10
9219;DHT22;4644;48.858;9.184;2023-06-26T02:18:36;19.80;85.30
9219;DHT22;4644;48.858;9.184;2023-06-26T02:21:03;19.80;84.70
9219;DHT22;4644;48.858;9.184;2023-06-26T02:23:31;19.80;84.70
9219;DHT22;4644;48.858;9.184;2023-06-26T02:25:58;19.80;84.90
9219;DHT22;4644;48.858;9.184;2023-06-26T02:28:25;19.70;85.20
9219;DHT22;4644;48.858;9.184;2023-06-26T02:30:52;19.80;85.40
9219;DHT22;4644;48.858;9.184;2023-06-26T02:33:21;19.70;85.60
9219;DHT22;4644;48.858;9.184;2023-06-26T02:35:48;19.70;86.10
9219;DHT22;4644;48.858;9.184;2023-06-26T02:38:15;19.60;85.80
9219;DHT22;4644;48.858;9.184;2023-06-26T02:40:42;19.60;86.10
9219;DHT22;4644;48.858;9.184;2023-06-26T02:43:09;19.60;86.90
9219;DHT22;4644;48.858;9.184;2023-06-26T02:45:36;19.40;88.80
9219;DHT22;4644;48.858;9.184;2023-06-26T02:48:03;19.50;87.60
9219;DHT22;4644;48.858;9.184;2023-06-26T02:50:32;19.50;87.90
9219;DHT22;4644;48.858;9.184;2023-06-26T02:52:58;19.50;88.20
9219;DHT22;4644;48.858;9.184;2023-06-26T02:55:26;19.40;88.10
9219;DHT22;4644;48.858;9.184;2023-06-26T02:57:53;19.30;89.10
9219;DHT22;4644;48.858;9.184;2023-06-26T03:00:20;19.30;88.90
9219;DHT22;4644;48.858;9.184;2023-06-26T03:02:47;19.30;90.00
9219;DHT22;4644;48.858;9.184;2023-06-26T03:05:14;19.20;89.50
9219;DHT22;4644;48.858;9.184;2023-06-26T03:07:42;19.10;91.00
9219;DHT22;4644;48.858;9.184;2023-06-26T03:10:09;19.10;90.20
9219;DHT22;4644;48.858;9.184;2023-06-26T03:12:36;19.10;90.60
9219;DHT22;4644;48.858;9.184;2023-06-26T03:15:03;19.10;90.80
9219;DHT22;4644;48.858;9.184;2023-06-26T03:17:30;19.00;91.40
9219;DHT22;4644;48.858;9.184;2023-06-26T03:19:58;19.00;92.80
9219;DHT22;4644;48.858;9.184;2023-06-26T03:22:25;18.90;91.70
9219;DHT22;4644;48.858;9.184;2023-06-26T03:24:54;18.90;92.90
9219;DHT22;4644;48.858;9.184;2023-06-26T03:27:21;18.80;94.50
9219;DHT22;4644;48.858;9.184;2023-06-26T03:29:48;18.70;94.30
9219;DHT22;4644;48.858;9.184;2023-06-26T03:32:14;18.70;95.70
9219;DHT22;4644;48.858;9.184;2023-06-26T03:34:42;18.60;97.40
9219;DHT22;4644;48.858;9.184;2023-06-26T03:37:09;18.50;98.90
9219;DHT22;4644;48.858;9.184;2023-06-26T03:39:36;18.40;99.90
9219;DHT22;4644;48.858;9.184;2023-06-26T03:42:05;18.30;99.90
9219;DHT22;4644;48.858;9.184;2023-06-26T03:44:32;18.30;99.90
9219;DHT22;4644;48.858;9.184;2023-06-26T03:46:59;18.20;99.90
9219;DHT22;4644;48.858;9.184;2023-06-26T03:49:26;18.20;99.90
9219;DHT22;4644;48.858;9.184;2023-06-26T03:51:53;18.10;99.90
9219;DHT22;4644;48.858;9.184;2023-06-26T03:54:20;18.10;99.90
9219;DHT22;4644;48.858;9.184;2023-06-26T03:56:47;18.10;99.90
9219;DHT22;4644;48.858;9.184;2023-06-26T03:59:15;18.10;99.90
9219;DHT22;4644;48.858;9.184;2023-06-26T04:01:43;18.10;99.90
9219;DHT22;4644;48.858;9.184;2023-06-26T04:04:09;18.20;99.90
9219;DHT22;4644;48.858;9.184;2023-06-26T04:06:36;18.10;99.90
9219;DHT22;4644;48.858;9.184;2023-06-26T04:09:03;18.10;99.90
9219;DHT22;4644;48.858;9.184;2023-06-26T04:11:30;18.10;99.90
9219;DHT22;4644;48.858;9.184;2023-06-26T04:13:57;18.10;99.90
9219;DHT22;4644;48.858;9.184;2023-06-26T04:16:29;18.00;99.90
9219;DHT22;4644;48.858;9.184;2023-06-26T04:18:56;18.00;99.90
9219;DHT22;4644;48.858;9.184;2023-06-26T04:21:23;18.10;99.90
9219;DHT22;4644;48.858;9.184;2023-06-26T04:23:51;18.20;99.90
9219;DHT22;4644;48.858;9.184;2023-06-26T04:26:18;18.20;99.90
9219;DHT22;4644;48.858;9.184;2023-06-26T04:28:45;18.30;99.90
9219;DHT22;4644;48.858;9.184;2023-06-26T04:31:12;18.30;99.90
9219;DHT22;4644;48.858;9.184;2023-06-26T04:33:40;18.40;99.90
9219;DHT22;4644;48.858;9.184;2023-06-26T04:36:07;18.50;99.90
9219;DHT22;4644;48.858;9.184;2023-06-26T04:38:35;18.60;99.90
9219;DHT22;4644;48.858;9.184;2023-06-26T04:41:02;18.80;99.90
9219;DHT22;4644;48.858;9.184;2023-06-26T04:43:29;18.90;99.90
9219;DHT22;4644;48.858;9.184;2023-06-26T04:45:57;19.00;99.90
9219;DHT22;4644;48.858;9.184;2023-06-26T04:48:24;19.20;99.90
9219;DHT22;4644;48.858;9.184;2023-06-26T04:50:54;19.40;99.90
9219;DHT22;4644;48.858;9.184;2023-06-26T04:53:22;19.50;99.90
9219;DHT22;4644;48.858;9.184;2023-06-26T04:55:49;19.70;99.90
9219;DHT22;4644;48.858;9.184;2023-06-26T04:58:16;19.80;99.90
9219;DHT22;4644;48.858;9.184;2023-06-26T05:00:44;20.00;99.90
9219;DHT22;4644;48.858;9.184;2023-06-26T05:03:12;20.30;99.90
9219;DHT22;4644;48.858;9.184;2023-06-26T05:05:39;20.50;99.90
9219;DHT22;4644;48.858;9.184;2023-06-26T05:08:18;20.80;99.90
9219;DHT22;4644;48.858;9.184;2023-06-26T05:10:45;21.10;99.90
9219;DHT22;4644;48.858;9.184;2023-06-26T05:13:15;21.40;99.70
9219;DHT22;4644;48.858;9.184;2023-06-26T05:15:47;21.60;97.70
9219;DHT22;4644;48.858;9.184;2023-06-26T05:18:14;21.90;98.10
9219;DHT22;4644;48.858;9.184;2023-06-26T05:20:42;22.20;96.60
9219;DHT22;4644;48.858;9.184;2023-06-26T05:23:11;22.20;95.90
9219;DHT22;4644;48.858;9.184;2023-06-26T05:25:43;22.30;96.00
9219;DHT22;4644;48.858;9.184;2023-06-26T05:28:11;22.60;95.70
9219;DHT22;4644;48.858;9.184;2023-06-26T05:30:39;22.90;95.80
9219;DHT22;4644;48.858;9.184;2023-06-26T05:33:08;23.20;94.10
9219;DHT22;4644;48.858;9.184;2023-06-26T05:35:37;23.40;95.20
9219;DHT22;4644;48.858;9.184;2023-06-26T05:38:05;23.50;93.30
9219;DHT22;4644;48.858;9.184;2023-06-26T05:40:32;23.70;93.60
9219;DHT22;4644;48.858;9.184;2023-06-26T05:43:02;23.90;91.70
9219;DHT22;4644;48.858;9.184;2023-06-26T05:45:29;23.90;92.30
9219;DHT22;4644;48.858;9.184;2023-06-26T05:47:56;24.00;91.30
9219;DHT22;4644;48.858;9.184;2023-06-26T05:50:23;24.10;92.90
9219;DHT22;4644;48.858;9.184;2023-06-26T05:52:51;24.10;91.40
9219;DHT22;4644;48.858;9.184;2023-06-26T05:55:19;24.50;91.90
9219;DHT22;4644;48.858;9.184;2023-06-26T05:57:47;24.60;91.00
9219;DHT22;4644;48.858;9.184;2023-06-26T06:00:16;24.90;87.30
9219;DHT22;4644;48.858;9.184;2023-06-26T06:02:45;25.00;89.40
9219;DHT22;4644;48.858;9.184;2023-06-26T06:05:12;25.00;89.90
9219;DHT22;4644;48.858;9.184;2023-06-26T06:07:39;25.20;90.50
9219;DHT22;4644;48.858;9.184;2023-06-26T06:10:08;25.30;87.10
9219;DHT22;4644;48.858;9.184;2023-06-26T06:12:35;25.50;87.10
9219;DHT22;4644;48.858;9.184;2023-06-26T06:15:02;25.70;84.50
9219;DHT22;4644;48.858;9.184;2023-06-26T06:17:30;25.70;82.90
9219;DHT22;4644;48.858;9.184;2023-06-26T06:19:58;25.60;84.50
9219;DHT22;4644;48.858;9.184;2023-06-26T06:22:24;25.60;84.30
9219;DHT22;4644;48.858;9.184;2023-06-26T06:24:51;25.80;83.00
9219;DHT22;4644;48.858;9.184;2023-06-26T06:27:18;25.90;81.80
9219;DHT22;4644;48.858;9.184;2023-06-26T06:29:45;26.10;82.70
9219;DHT22;4644;48.858;9.184;2023-06-26T06:32:12;26.20;82.40
9219;DHT22;4644;48.858;9.184;2023-06-26T06:34:41;26.30;81.20
9219;DHT22;4644;48.858;9.184;2023-06-26T06:37:08;26.60;81.00
9219;DHT22;4644;48.858;9.184;2023-06-26T06:39:35;26.60;81.60
9219;DHT22;4644;48.858;9.184;2023-06-26T06:42:02;27.00;77.90
9219;DHT22;4644;48.858;9.184;2023-06-26T06:44:30;26.90;76.40
9219;DHT22;4644;48.858;9.184;2023-06-26T06:46:57;26.90;79.60
9219;DHT22;4644;48.858;9.184;2023-06-26T06:49:24;26.80;76.20
9219;DHT22;4644;48.858;9.184;2023-06-26T06:51:52;27.10;77.70
9219;DHT22;4644;48.858;9.184;2023-06-26T06:54:19;27.20;74.40
9219;DHT22;4644;48.858;9.184;2023-06-26T06:56:46;26.90;74.80
9219;DHT22;4644;48.858;9.184;2023-06-26T06:59:13;26.90;76.40
9219;DHT22;4644;48.858;9.184;2023-06-26T07:01:40;27.10;74.10
9219;DHT22;4644;48.858;9.184;2023-06-26T07:04:07;26.70;74.90
9219;DHT22;4644;48.858;9.184;2023-06-26T07:06:34;26.70;74.50
9219;DHT22;4644;48.858;9.184;2023-06-26T07:09:02;27.10;77.20
9219;DHT22;4644;48.858;9.184;2023-06-26T07:11:30;27.30;72.00
9219;DHT22;4644;48.858;9.184;2023-06-26T07:13:57;27.40;74.80
9219;DHT22;4644;48.858;9.184;2023-06-26T07:16:24;27.90;72.60
9219;DHT22;4644;48.858;9.184;2023-06-26T07:18:51;28.40;70.80
9219;DHT22;4644;48.858;9.184;2023-06-26T07:21:18;28.50;69.10
9219;DHT22;4644;48.858;9.184;2023-06-26T07:23:45;28.50;70.30
9219;DHT22;4644;48.858;9.184;2023-06-26T07:26:15;29.00;70.10
9219;DHT22;4644;48.858;9.184;2023-06-26T07:28:42;29.60;68.90
9219;DHT22;4644;48.858;9.184;2023-06-26T07:31:09;30.00;68.90
9219;DHT22;4644;48.858;9.184;2023-06-26T07:33:36;30.20;65.10
9219;DHT22;4644;48.858;9.184;2023-06-26T07:36:03;30.50;64.40
9219;DHT22;4644;48.858;9.184;2023-06-26T07:38:30;30.20;65.10
9219;DHT22;4644;48.858;9.184;2023-06-26T07:40:58;29.90;61.70
9219;DHT22;4644;48.858;9.184;2023-06-26T07:43:26;29.30;64.00
9219;DHT22;4644;48.858;9.184;2023-06-26T07:45:53;28.90;64.90
9219;DHT22;4644;48.858;9.184;2023-06-26T07:48:24;28.70;64.80
9219;DHT22;4644;48.858;9.184;2023-06-26T07:50:51;28.70;67.90
9219;DHT22;4644;48.858;9.184;2023-06-26T07:53:17;29.30;69.20
9219;DHT22;4644;48.858;9.184;2023-06-26T07:55:45;29.90;69.90
9219;DHT22;4644;48.858;9.184;2023-06-26T07:58:11;30.40;64.10
9219;DHT22;4644;48.858;9.184;2023-06-26T08:00:40;30.40;64.50
9219;DHT22;4644;48.858;9.184;2023-06-26T08:03:07;30.00;62.60
9219;DHT22;4644;48.858;9.184;2023-06-26T08:05:33;29.80;68.40
9219;DHT22;4644;48.858;9.184;2023-06-26T08:08:00;29.80;61.30
9219;DHT22;4644;48.858;9.184;2023-06-26T08:10:28;29.50;61.70
9219;DHT22;4644;48.858;9.184;2023-06-26T08:12:56;29.60;61.90
9219;DHT22;4644;48.858;9.184;2023-06-26T08:15:24;29.70;62.30
9219;DHT22;4644;48.858;9.184;2023-06-26T08:17:52;29.80;61.20
9219;DHT22;4644;48.858;9.184;2023-06-26T08:20:19;29.80;60.10
9219;DHT22;4644;48.858;9.184;2023-06-26T08:22:46;29.50;60.30
9219;DHT22;4644;48.858;9.184;2023-06-26T08:25:14;29.60;62.30
9219;DHT22;4644;48.858;9.184;2023-06-26T08:27:41;30.10;63.20
9219;DHT22;4644;48.858;9.184;2023-06-26T08:30:09;30.30;61.00
9219;DHT22;4644;48.858;9.184;2023-06-26T08:32:37;30.60;60.40
9219;DHT22;4644;48.858;9.184;2023-06-26T08:35:07;30.50;59.10
9219;DHT22;4644;48.858;9.184;2023-06-26T08:37:35;30.40;58.80
9219;DHT22;4644;48.858;9.184;2023-06-26T08:40:03;30.60;59.30
9219;DHT22;4644;48.858;9.184;2023-06-26T08:42:30;30.40;58.20
9219;DHT22;4644;48.858;9.184;2023-06-26T08:44:57;30.30;59.20
9219;DHT22;4644;48.858;9.184;2023-06-26T08:47:24;30.20;59.50
9219;DHT22;4644;48.858;9.184;2023-06-26T08:49:58;30.40;59.30
9219;DHT22;4644;48.858;9.184;2023-06-26T08:52:33;30.50;58.60
9219;DHT22;4644;48.858;9.184;2023-06-26T08:55:02;30.50;58.30
9219;DHT22;4644;48.858;9.184;2023-06-26T08:57:32;30.40;59.50
9219;DHT22;4644;48.858;9.184;2023-06-26T08:59:59;30.40;59.00
9219;DHT22;4644;48.858;9.184;2023-06-26T09:02:26;30.50;59.20
9219;DHT22;4644;48.858;9.184;2023-06-26T09:04:54;30.70;59.70
9219;DHT22;4644;48.858;9.184;2023-06-26T09:07:21;30.70;58.90
9219;DHT22;4644;48.858;9.184;2023-06-26T09:09:50;31.00;58.10
9219;DHT22;4644;48.858;9.184;2023-06-26T09:12:17;31.00;59.60
9219;DHT22;4644;48.858;9.184;2023-06-26T09:14:44;31.10;58.40
9219;DHT22;4644;48.858;9.184;2023-06-26T09:17:13;31.40;58.10
9219;DHT22;4644;48.858;9.184;2023-06-26T09:19:39;31.50;57.10
9219;DHT22;4644;48.858;9.184;2023-06-26T09:22:12;31.90;57.40
9219;DHT22;4644;48.858;9.184;2023-06-26T09:24:41;32.30;60.40
9219;DHT22;4644;48.858;9.184;2023-06-26T09:27:09;32.20;56.40
9219;DHT22;4644;48.858;9.184;2023-06-26T09:29:37;31.90;54.10
9219;DHT22;4644;48.858;9.184;2023-06-26T09:32:04;31.70;57.00
9219;DHT22;4644;48.858;9.184;2023-06-26T09:34:31;31.90;56.30
9219;DHT22;4644;48.858;9.184;2023-06-26T09:36:59;31.90;55.30
9219;DHT22;4644;48.858;9.184;2023-06-26T09:39:30;32.10;55.20
9219;DHT22;4644;48.858;9.184;2023-06-26T09:41:58;32.00;54.10
9219;DHT22;4644;48.858;9.184;2023-06-26T09:44:30;31.90;55.10
9219;DHT22;4644;48.858;9.184;2023-06-26T09:46:57;31.60;54.70
9219;DHT22;4644;48.858;9.184;2023-06-26T09:49:25;31.70;54.80
9219;DHT22;4644;48.858;9.184;2023-06-26T09:51:53;31.40;55.30
9219;DHT22;4644;48.858;9.184;2023-06-26T09:54:21;31.10;55.60
9219;DHT22;4644;48.858;9.184;2023-06-26T09:56:48;30.90;57.10
9219;DHT22;4644;48.858;9.184;2023-06-26T09:59:15;30.80;56.30
9219;DHT22;4644;48.858;9.184;2023-06-26T10:01:46;30.80;57.30
9219;DHT22;4644;48.858;9.184;2023-06-26T10:04:13;30.70;57.70
9219;DHT22;4644;48.858;9.184;2023-06-26T10:06:46;30.60;57.80
9219;DHT22;4644;48.858;9.184;2023-06-26T10:09:16;30.50;58.50
9219;DHT22;4644;48.858;9.184;2023-06-26T10:11:47;30.90;58.60
9219;DHT22;4644;48.858;9.184;2023-06-26T10:14:17;30.90;57.90
9219;DHT22;4644;48.858;9.184;2023-06-26T10:16:46;30.90;58.30
9219;DHT22;4644;48.858;9.184;2023-06-26T10:19:18;31.10;58.90
9219;DHT22;4644;48.858;9.184;2023-06-26T10:21:50;31.30;58.30
9219;DHT22;4644;48.858;9.184;2023-06-26T10:24:18;30.90;58.50
9219;DHT22;4644;48.858;9.184;2023-06-26T10:26:49;30.60;59.30
9219;DHT22;4644;48.858;9.184;2023-06-26T10:29:17;30.60;60.30
9219;DHT22;4644;48.858;9.184;2023-06-26T10:31:52;30.80;59.40
9219;DHT22;4644;48.858;9.184;2023-06-26T10:34:21;30.70;59.30
9219;DHT22;4644;48.858;9.184;2023-06-26T10:36:58;30.30;59.70
9219;DHT22;4644;48.858;9.184;2023-06-26T10:39:25;30.30;59.60
9219;DHT22;4644;48.858;9.184;2023-06-26T10:41:54;30.50;59.40
9219;DHT22;4644;48.858;9.184;2023-06-26T10:44:21;30.60;59.20
9219;DHT22;4644;48.858;9.184;2023-06-26T10:46:51;30.60;59.00
9219;DHT22;4644;48.858;9.184;2023-06-26T10:49:19;30.90;59.50
9219;DHT22;4644;48.858;9.184;2023-06-26T10:51:47;31.00;57.90
9219;DHT22;4644;48.858;9.184;2023-06-26T10:54:15;31.10;59.90
9219;DHT22;4644;48.858;9.184;2023-06-26T10:56:44;31.20;58.30
9219;DHT22;4644;48.858;9.184;2023-06-26T10:59:14;31.40;57.80
9219;DHT22;4644;48.858;9.184;2023-06-26T11:01:42;31.50;57.20
9219;DHT22;4644;48.858;9.184;2023-06-26T11:04:13;31.60;59.40
9219;DHT22;4644;48.858;9.184;2023-06-26T11:06:45;31.80;57.50
9219;DHT22;4644;48.858;9.184;2023-06-26T11:09:17;31.70;58.90
9219;DHT22;4644;48.858;9.184;2023-06-26T11:12:00;31.80;58.40
9219;DHT22;4644;48.858;9.184;2023-06-26T11:14:32;31.90;58.20
9219;DHT22;4644;48.858;9.184;2023-06-26T11:17:02;31.70;58.40
9219;DHT22;4644;48.858;9.184;2023-06-26T11:19:30;31.50;59.40
9219;DHT22;4644;48.858;9.184;2023-06-26T11:21:59;32.00;58.50
9219;DHT22;4644;48.858;9.184;2023-06-26T11:24:26;31.50;59.30
9219;DHT22;4644;48.858;9.184;2023-06-26T11:26:54;31.20;59.60
9219;DHT22;4644;48.858;9.184;2023-06-26T11:29:26;31.40;59.80
9219;DHT22;4644;48.858;9.184;2023-06-26T11:31:59;31.80;58.60
9219;DHT22;4644;48.858;9.184;2023-06-26T11:34:31;31.80;58.70
9219;DHT22;4644;48.858;9.184;2023-06-26T11:36:58;31.40;60.20
9219;DHT22;4644;48.858;9.184;2023-06-26T11:39:27;31.30;60.30
9219;DHT22;4644;48.858;9.184;2023-06-26T11:41:54;31.20;60.70
9219;DHT22;4644;48.858;9.184;2023-06-26T11:44:21;31.40;61.00
9219;DHT22;4644;48.858;9.184;2023-06-26T11:46:52;31.30;61.40
9219;DHT22;4644;48.858;9.184;2023-06-26T11:49:21;31.70;62.20
9219;DHT22;4644;48.858;9.184;2023-06-26T11:51:53;31.70;60.20
9219;DHT22;4644;48.858;9.184;2023-06-26T11:54:26;31.70;60.90
9219;DHT22;4644;48.858;9.184;2023-06-26T11:56:55;31.60;60.50
9219;DHT22;4644;48.858;9.184;2023-06-26T11:59:23;31.40;62.50
9219;DHT22;4644;48.858;9.184;2023-06-26T12:01:51;31.30;61.60
9219;DHT22;4644;48.858;9.184;2023-06-26T12:04:19;30.80;62.20
9219;DHT22;4644;48.858;9.184;2023-06-26T12:06:48;31.10;62.70
9219;DHT22;4644;48.858;9.184;2023-06-26T12:09:18;31.00;64.20
9219;DHT22;4644;48.858;9.184;2023-06-26T12:11:47;30.60;64.20
9219;DHT22;4644;48.858;9.184;2023-06-26T12:14:15;30.20;66.00
9219;DHT22;4644;48.858;9.184;2023-06-26T12:16:43;30.60;64.80
9219;DHT22;4644;48.858;9.184;2023-06-26T12:19:11;30.60;64.50
9219;DHT22;4644;48.858;9.184;2023-06-26T12:21:46;30.70;66.40
9219;DHT22;4644;48.858;9.184;2023-06-26T12:24:16;30.80;64.50
9219;DHT22;4644;48.858;9.184;2023-06-26T12:26:46;30.70;63.00
9219;DHT22;4644;48.858;9.184;2023-06-26T12:29:14;30.50;63.60
9219;DHT22;4644;48.858;9.184;2023-06-26T12:31:43;30.40;63.00
9219;DHT22;4644;48.858;9.184;2023-06-26T12:34:12;30.30;64.70
9219;DHT22;4644;48.858;9.184;2023-06-26T12:36:43;30.20;65.10
9219;DHT22;4644;48.858;9.184;2023-06-26T12:39:10;30.10;67.00
9219;DHT22;4644;48.858;9.184;2023-06-26T12:41:51;30.10;65.80
9219;DHT22;4644;48.858;9.184;2023-06-26T12:44:24;30.30;65.50
9219;DHT22;4644;48.858;9.184;2023-06-26T12:46:54;30.10;64.90
9219;DHT22;4644;48.858;9.184;2023-06-26T12:49:29;30.30;66.50
9219;DHT22;4644;48.858;9.184;2023-06-26T12:51:57;30.20;66.10
9219;DHT22;4644;48.858;9.184;2023-06-26T12:54:24;30.30;66.30
9219;DHT22;4644;48.858;9.184;2023-06-26T12:56:53;30.40;65.60
9219;DHT22;4644;48.858;9.184;2023-06-26T12:59:20;30.20;64.30
9219;DHT22;4644;48.858;9.184;2023-06-26T13:01:47;30.20;65.80
9219;DHT22;4644;48.858;9.184;2023-06-26T13:04:14;30.20;64.50
9219;DHT22;4644;48.858;9.184;2023-06-26T13:06:41;30.20;64.30
9219;DHT22;4644;48.858;9.184;2023-06-26T13:09:08;30.20;64.80
9219;DHT22;4644;48.858;9.184;2023-06-26T13:11:36;30.30;65.80
9219;DHT22;4644;48.858;9.184;2023-06-26T13:14:05;30.10;65.80
9219;DHT22;4644;48.858;9.184;2023-06-26T13:16:32;29.90;62.70
9219;DHT22;4644;48.858;9.184;2023-06-26T13:18:59;29.80;62.90
9219;DHT22;4644;48.858;9.184;2023-06-26T13:21:27;29.90;62.60
9219;DHT22;4644;48.858;9.184;2023-06-26T13:23:55;30.00;62.40
9219;DHT22;4644;48.858;9.184;2023-06-26T13:26:22;30.00;63.50
9219;DHT22;4644;48.858;9.184;2023-06-26T13:28:51;30.10;61.40
9219;DHT22;4644;48.858;9.184;2023-06-26T13:31:19;30.00;62.10
9219;DHT22;4644;48.858;9.184;2023-06-26T13:33:47;29.90;60.40
9219;DHT22;4644;48.858;9.184;2023-06-26T13:36:15;29.90;61.30
9219;DHT22;4644;48.858;9.184;2023-06-26T13:38:42;29.80;59.60
9219;DHT22;4644;48.858;9.184;2023-06-26T13:41:09;29.90;58.80
9219;DHT22;4644;48.858;9.184;2023-06-26T13:43:36;29.90;59.60
9219;DHT22;4644;48.858;9.184;2023-06-26T13:46:03;29.90;58.10
9219;DHT22;4644;48.858;9.184;2023-06-26T13:48:32;29.80;58.40
9219;DHT22;4644;48.858;9.184;2023-06-26T13:50:59;30.00;58.50
9219;DHT22;4644;48.858;9.184;2023-06-26T13:53:26;29.90;57.70
9219;DHT22;4644;48.858;9.184;2023-06-26T13:55:53;29.70;58.10
9219;DHT22;4644;48.858;9.184;2023-06-26T13:58:20;29.80;57.90
9219;DHT22;4644;48.858;9.184;2023-06-26T14:00:50;30.00;61.20
9219;DHT22;4644;48.858;9.184;2023-06-26T14:03:17;30.00;56.80
9219;DHT22;4644;48.858;9.184;2023-06-26T14:05:45;29.90;57.20
9219;DHT22;4644;48.858;9.184;2023-06-26T14:08:13;30.00;57.00
9219;DHT22;4644;48.858;9.184;2023-06-26T14:10:40;29.80;58.30
9219;DHT22;4644;48.858;9.184;2023-06-26T14:13:07;29.90;58.10
9219;DHT22;4644;48.858;9.184;2023-06-26T14:15:37;30.00;56.80
9219;DHT22;4644;48.858;9.184;2023-06-26T14:18:05;29.80;56.60
9219;DHT22;4644;48.858;9.184;2023-06-26T14:20:33;29.80;58.00
9219;DHT22;4644;48.858;9.184;2023-06-26T14:23:03;29.80;56.30
9219;DHT22;4644;48.858;9.184;2023-06-26T14:25:29;29.80;55.90
9219;DHT22;4644;48.858;9.184;2023-06-26T14:27:57;29.60;56.50
9219;DHT22;4644;48.858;9.184;2023-06-26T14:30:24;29.80;59.10
9219;DHT22;4644;48.858;9.184;2023-06-26T14:32:51;29.90;56.30
9219;DHT22;4644;48.858;9.184;2023-06-26T14:35:18;29.60;57.00
9219;DHT22;4644;48.858;9.184;2023-06-26T14:37:47;29.50;56.30
9219;DHT22;4644;48.858;9.184;2023-06-26T14:40:15;29.60;57.30
9219;DHT22;4644;48.858;9.184;2023-06-26T14:42:43;29.50;56.90
9219;DHT22;4644;48.858;9.184;2023-06-26T14:45:11;29.60;56.90
9219;DHT22;4644;48.858;9.184;2023-06-26T14:47:38;29.40;56.90
9219;DHT22;4644;48.858;9.184;2023-06-26T14:50:06;29.50;57.40
9219;DHT22;4644;48.858;9.184;2023-06-26T14:52:33;29.50;56.50
9219;DHT22;4644;48.858;9.184;2023-06-26T14:55:00;29.60;56.40
9219;DHT22;4644;48.858;9.184;2023-06-26T14:57:28;30.00;56.60
9219;DHT22;4644;48.858;9.184;2023-06-26T14:59:55;30.30;55.10
9219;DHT22;4644;48.858;9.184;2023-06-26T15:02:22;30.70;55.20
9219;DHT22;4644;48.858;9.184;2023-06-26T15:04:49;31.00;53.80
9219;DHT22;4644;48.858;9.184;2023-06-26T15:07:16;31.00;54.20
9219;DHT22;4644;48.858;9.184;2023-06-26T15:09:43;31.20;52.30
9219;DHT22;4644;48.858;9.184;2023-06-26T15:12:10;30.90;53.30
9219;DHT22;4644;48.858;9.184;2023-06-26T15:14:39;31.50;53.40
9219;DHT22;4644;48.858;9.184;2023-06-26T15:17:06;31.90;50.60
9219;DHT22;4644;48.858;9.184;2023-06-26T15:19:34;31.70;50.90
9219;DHT22;4644;48.858;9.184;2023-06-26T15:22:01;31.30;52.10
9219;DHT22;4644;48.858;9.184;2023-06-26T15:24:28;30.60;52.80
9219;DHT22;4644;48.858;9.184;2023-06-26T15:26:55;30.20;54.60
9219;DHT22;4644;48.858;9.184;2023-06-26T15:29:22;29.90;55.10
9219;DHT22;4644;48.858;9.184;2023-06-26T15:31:51;29.80;55.20
9219;DHT22;4644;48.858;9.184;2023-06-26T15:34:18;29.30;55.70
9219;DHT22;4644;48.858;9.184;2023-06-26T15:36:46;29.50;55.30
9219;DHT22;4644;48.858;9.184;2023-06-26T15:39:12;29.50;55.50
9219;DHT22;4644;48.858;9.184;2023-06-26T15:41:39;29.50;56.70
9219;DHT22;4644;48.858;9.184;2023-06-26T15:44:06;29.50;55.80
9219;DHT22;4644;48.858;9.184;2023-06-26T15:46:33;29.90;56.20
9219;DHT22;4644;48.858;9.184;2023-06-26T15:49:02;30.00;54.50
9219;DHT22;4644;48.858;9.184;2023-06-26T15:51:29;29.80;55.30
9219;DHT22;4644;48.858;9.184;2023-06-26T15:53:56;29.40;55.60
9219;DHT22;4644;48.858;9.184;2023-06-26T15:56:23;29.30;57.20
9219;DHT22;4644;48.858;9.184;2023-06-26T15:58:50;29.00;56.20
9219;DHT22;4644;48.858;9.184;2023-06-26T16:01:17;29.00;56.90
9219;DHT22;4644;48.858;9.184;2023-06-26T16:03:46;28.90;56.00
9219;DHT22;4644;48.858;9.184;2023-06-26T16:06:14;28.50;57.30
9219;DHT22;4644;48.858;9.184;2023-06-26T16:08:42;28.20;58.60